sensor_id;sensor_type;location;lat;lon;timestamp;temperature;humidity
32506;DHT22;18955;51.224;8.482;2024-03-25T00:01:41;7.70;75.30
32506;DHT22;18955;51.224;8.482;2024-03-25T00:04:07;8.20;73.80
32506;DHT22;18955;51.224;8.482;2024-03-25T00:06:33;8.10;73.80
32506;DHT22;18955;51.224;8.482;2024-03-25T00:09:00;7.90;74.40
32506;DHT22;18955;51.224;8.482;2024-03-25T00:11:27;7.70;75.10
32506;DHT22;18955;51.224;8.482;2024-03-25T00:13:53;8.00;74.60
32506;DHT22;18955;51.224;8.482;2024-03-25T00:16:19;8.10;73.70
32506;DHT22;18955;51.224;8.482;2024-03-25T00:18:46;8.00;74.10
32506;DHT22;18955;51.224;8.482;2024-03-25T00:21:12;7.80;74.80
32506;DHT22;18955;51.224;8.482;2024-03-25T00:23:38;7.70;75.20
32506;DHT22;18955;51.224;8.482;2024-03-25T00:26:04;8.20;73.60
32506;DHT22;18955;51.224;8.482;2024-03-25T00:28:30;8.10;73.70
32506;DHT22;18955;51.224;8.482;2024-03-25T00:30:57;7.90;74.40
32506;DHT22;18955;51.224;8.482;2024-03-25T00:33:23;7.70;75.20
32506;DHT22;18955;51.224;8.482;2024-03-25T00:35:50;8.00;74.50
32506;DHT22;18955;51.224;8.482;2024-03-25T00:38:16;8.10;73.50
32506;DHT22;18955;51.224;8.482;2024-03-25T00:40:42;8.00;74.10
32506;DHT22;18955;51.224;8.482;2024-03-25T00:43:09;7.70;74.80
32506;DHT22;18955;51.224;8.482;2024-03-25T00:45:35;7.80;75.30
32506;DHT22;18955;51.224;8.482;2024-03-25T00:48:01;8.20;73.60
32506;DHT22;18955;51.224;8.482;2024-03-25T00:50:27;8.00;73.70
32506;DHT22;18955;51.224;8.482;2024-03-25T00:52:54;7.90;74.50
32506;DHT22;18955;51.224;8.482;2024-03-25T00:55:20;7.60;75.10
32506;DHT22;18955;51.224;8.482;2024-03-25T00:57:48;8.00;74.20
32506;DHT22;18955;51.224;8.482;2024-03-25T01:00:14;8.10;73.70
32506;DHT22;18955;51.224;8.482;2024-03-25T01:02:42;7.90;74.20
32506;DHT22;18955;51.224;8.482;2024-03-25T01:05:08;7.70;74.90
32506;DHT22;18955;51.224;8.482;2024-03-25T01:07:35;7.80;75.10
32506;DHT22;18955;51.224;8.482;2024-03-25T01:10:01;8.10;73.50
32506;DHT22;18955;51.224;8.482;2024-03-25T01:12:28;8.00;73.80
32506;DHT22;18955;51.224;8.482;2024-03-25T01:14:54;7.80;74.60
32506;DHT22;18955;51.224;8.482;2024-03-25T01:17:20;7.60;75.10
32506;DHT22;18955;51.224;8.482;2024-03-25T01:19:46;8.10;73.90
32506;DHT22;18955;51.224;8.482;2024-03-25T01:22:13;8.10;73.60
32506;DHT22;18955;51.224;8.482;2024-03-25T01:24:39;7.90;74.20
32506;DHT22;18955;51.224;8.482;2024-03-25T01:27:06;7.60;74.90
32506;DHT22;18955;51.224;8.482;2024-03-25T01:29:32;7.90;74.80
32506;DHT22;18955;51.224;8.482;2024-03-25T01:31:58;8.20;73.50
32506;DHT22;18955;51.224;8.482;2024-03-25T01:34:26;8.00;73.90
32506;DHT22;18955;51.224;8.482;2024-03-25T01:36:52;7.70;74.60
32506;DHT22;18955;51.224;8.482;2024-03-25T01:39:18;7.60;75.10
32506;DHT22;18955;51.224;8.482;2024-03-25T01:41:44;8.10;73.50
32506;DHT22;18955;51.224;8.482;2024-03-25T01:44:11;8.00;73.50
32506;DHT22;18955;51.224;8.482;2024-03-25T01:46:37;7.80;74.20
32506;DHT22;18955;51.224;8.482;2024-03-25T01:49:04;7.60;74.90
32506;DHT22;18955;51.224;8.482;2024-03-25T01:51:32;7.90;74.50
32506;DHT22;18955;51.224;8.482;2024-03-25T01:53:59;8.00;73.60
32506;DHT22;18955;51.224;8.482;2024-03-25T01:56:26;7.90;74.00
32506;DHT22;18955;51.224;8.482;2024-03-25T01:58:52;7.70;74.80
32506;DHT22;18955;51.224;8.482;2024-03-25T02:01:20;7.80;75.20
32506;DHT22;18955;51.224;8.482;2024-03-25T02:03:46;8.10;73.60
32506;DHT22;18955;51.224;8.482;2024-03-25T02:06:15;8.00;73.80
32506;DHT22;18955;51.224;8.482;2024-03-25T02:08:47;7.80;74.60
32506;DHT22;18955;51.224;8.482;2024-03-25T02:11:14;7.60;74.90
32506;DHT22;18955;51.224;8.482;2024-03-25T02:13:40;8.00;73.80
32506;DHT22;18955;51.224;8.482;2024-03-25T02:16:07;8.00;73.70
32506;DHT22;18955;51.224;8.482;2024-03-25T02:18:33;7.80;74.30
32506;DHT22;18955;51.224;8.482;2024-03-25T02:21:00;7.60;74.90
32506;DHT22;18955;51.224;8.482;2024-03-25T02:23:26;7.90;74.40
32506;DHT22;18955;51.224;8.482;2024-03-25T02:25:53;8.10;73.40
32506;DHT22;18955;51.224;8.482;2024-03-25T02:28:19;7.90;73.90
32506;DHT22;18955;51.224;8.482;2024-03-25T02:30:46;7.70;74.60
32506;DHT22;18955;51.224;8.482;2024-03-25T02:33:13;7.70;75.20
32506;DHT22;18955;51.224;8.482;2024-03-25T02:35:40;8.10;73.40
32506;DHT22;18955;51.224;8.482;2024-03-25T02:38:08;8.00;73.60
32506;DHT22;18955;51.224;8.482;2024-03-25T02:40:34;7.80;74.30
32506;DHT22;18955;51.224;8.482;2024-03-25T02:43:01;7.60;75.00
32506;DHT22;18955;51.224;8.482;2024-03-25T02:45:27;8.00;73.80
32506;DHT22;18955;51.224;8.482;2024-03-25T02:47:53;8.10;73.40
32506;DHT22;18955;51.224;8.482;2024-03-25T02:50:19;7.90;74.00
32506;DHT22;18955;51.224;8.482;2024-03-25T02:52:46;7.60;74.70
32506;DHT22;18955;51.224;8.482;2024-03-25T02:55:12;7.80;74.70
32506;DHT22;18955;51.224;8.482;2024-03-25T02:57:38;8.10;73.30
32506;DHT22;18955;51.224;8.482;2024-03-25T03:00:05;8.00;73.70
32506;DHT22;18955;51.224;8.482;2024-03-25T03:02:31;7.70;74.40
32506;DHT22;18955;51.224;8.482;2024-03-25T03:04:58;7.60;75.00
32506;DHT22;18955;51.224;8.482;2024-03-25T03:07:24;8.10;73.50
32506;DHT22;18955;51.224;8.482;2024-03-25T03:09:50;8.00;73.60
32506;DHT22;18955;51.224;8.482;2024-03-25T03:12:16;7.80;74.20
32506;DHT22;18955;51.224;8.482;2024-03-25T03:14:42;7.60;75.00
32506;DHT22;18955;51.224;8.482;2024-03-25T03:17:08;7.90;74.10
32506;DHT22;18955;51.224;8.482;2024-03-25T03:19:35;8.00;73.40
32506;DHT22;18955;51.224;8.482;2024-03-25T03:22:02;7.90;74.00
32506;DHT22;18955;51.224;8.482;2024-03-25T03:24:28;7.70;74.70
32506;DHT22;18955;51.224;8.482;2024-03-25T03:26:55;7.80;75.10
32506;DHT22;18955;51.224;8.482;2024-03-25T03:29:21;8.00;73.40
32506;DHT22;18955;51.224;8.482;2024-03-25T03:31:47;7.90;73.70
32506;DHT22;18955;51.224;8.482;2024-03-25T03:34:13;7.70;74.40
32506;DHT22;18955;51.224;8.482;2024-03-25T03:36:40;7.60;74.90
32506;DHT22;18955;51.224;8.482;2024-03-25T03:39:06;8.00;73.50
32506;DHT22;18955;51.224;8.482;2024-03-25T03:41:35;8.00;73.40
32506;DHT22;18955;51.224;8.482;2024-03-25T03:44:02;7.80;74.10
32506;DHT22;18955;51.224;8.482;2024-03-25T03:46:28;7.60;74.90
32506;DHT22;18955;51.224;8.482;2024-03-25T03:48:55;7.90;74.20
32506;DHT22;18955;51.224;8.482;2024-03-25T03:51:21;8.00;73.40
32506;DHT22;18955;51.224;8.482;2024-03-25T03:53:47;7.90;73.80
32506;DHT22;18955;51.224;8.482;2024-03-25T03:56:13;7.70;74.50
32506;DHT22;18955;51.224;8.482;2024-03-25T03:58:40;7.60;74.90
32506;DHT22;18955;51.224;8.482;2024-03-25T04:01:14;8.00;73.40
32506;DHT22;18955;51.224;8.482;2024-03-25T04:03:41;7.90;73.60
32506;DHT22;18955;51.224;8.482;2024-03-25T04:06:12;7.70;74.40
32506;DHT22;18955;51.224;8.482;2024-03-25T04:08:41;7.60;74.80
32506;DHT22;18955;51.224;8.482;2024-03-25T04:11:08;8.00;73.50
32506;DHT22;18955;51.224;8.482;2024-03-25T04:13:35;8.00;73.40
32506;DHT22;18955;51.224;8.482;2024-03-25T04:16:03;7.80;74.00
32506;DHT22;18955;51.224;8.482;2024-03-25T04:18:31;7.60;74.80
32506;DHT22;18955;51.224;8.482;2024-03-25T04:20:57;7.90;74.00
32506;DHT22;18955;51.224;8.482;2024-03-25T04:23:24;8.00;73.20
32506;DHT22;18955;51.224;8.482;2024-03-25T04:25:51;7.90;73.80
32506;DHT22;18955;51.224;8.482;2024-03-25T04:28:18;7.70;74.60
32506;DHT22;18955;51.224;8.482;2024-03-25T04:30:50;7.70;74.80
32506;DHT22;18955;51.224;8.482;2024-03-25T04:33:17;8.00;73.10
32506;DHT22;18955;51.224;8.482;2024-03-25T04:35:43;7.90;73.50
32506;DHT22;18955;51.224;8.482;2024-03-25T04:38:09;7.70;74.30
32506;DHT22;18955;51.224;8.482;2024-03-25T04:40:36;7.60;74.70
32506;DHT22;18955;51.224;8.482;2024-03-25T04:43:02;8.10;73.40
32506;DHT22;18955;51.224;8.482;2024-03-25T04:45:28;8.00;73.40
32506;DHT22;18955;51.224;8.482;2024-03-25T04:47:54;7.80;74.00
32506;DHT22;18955;51.224;8.482;2024-03-25T04:50:21;7.60;74.80
32506;DHT22;18955;51.224;8.482;2024-03-25T04:52:47;7.90;73.90
32506;DHT22;18955;51.224;8.482;2024-03-25T04:55:14;8.00;73.20
32506;DHT22;18955;51.224;8.482;2024-03-25T04:57:41;7.80;73.70
32506;DHT22;18955;51.224;8.482;2024-03-25T05:00:07;7.60;74.40
32506;DHT22;18955;51.224;8.482;2024-03-25T05:02:38;7.70;74.50
32506;DHT22;18955;51.224;8.482;2024-03-25T05:05:05;8.10;73.10
32506;DHT22;18955;51.224;8.482;2024-03-25T05:07:33;7.90;73.50
32506;DHT22;18955;51.224;8.482;2024-03-25T05:09:59;7.70;74.40
32506;DHT22;18955;51.224;8.482;2024-03-25T05:12:25;7.60;74.80
32506;DHT22;18955;51.224;8.482;2024-03-25T05:14:56;8.10;73.10
32506;DHT22;18955;51.224;8.482;2024-03-25T05:17:22;8.00;73.10
32506;DHT22;18955;51.224;8.482;2024-03-25T05:19:48;7.80;73.90
32506;DHT22;18955;51.224;8.482;2024-03-25T05:22:15;7.60;74.60
32506;DHT22;18955;51.224;8.482;2024-03-25T05:24:42;7.90;73.70
32506;DHT22;18955;51.224;8.482;2024-03-25T05:27:08;8.00;73.10
32506;DHT22;18955;51.224;8.482;2024-03-25T05:29:34;7.80;73.60
32506;DHT22;18955;51.224;8.482;2024-03-25T05:32:01;7.60;74.40
32506;DHT22;18955;51.224;8.482;2024-03-25T05:34:28;7.70;74.60
32506;DHT22;18955;51.224;8.482;2024-03-25T05:36:54;8.00;73.10
32506;DHT22;18955;51.224;8.482;2024-03-25T05:39:21;7.90;73.30
32506;DHT22;18955;51.224;8.482;2024-03-25T05:41:48;7.70;74.20
32506;DHT22;18955;51.224;8.482;2024-03-25T05:44:15;7.60;74.60
32506;DHT22;18955;51.224;8.482;2024-03-25T05:46:41;8.00;73.30
32506;DHT22;18955;51.224;8.482;2024-03-25T05:49:07;7.90;73.30
32506;DHT22;18955;51.224;8.482;2024-03-25T05:51:33;7.70;73.90
32506;DHT22;18955;51.224;8.482;2024-03-25T05:54:00;7.60;74.50
32506;DHT22;18955;51.224;8.482;2024-03-25T05:56:27;8.00;73.30
32506;DHT22;18955;51.224;8.482;2024-03-25T05:59:00;8.10;72.70
32506;DHT22;18955;51.224;8.482;2024-03-25T06:01:26;7.90;73.30
32506;DHT22;18955;51.224;8.482;2024-03-25T06:03:53;7.70;74.30
32506;DHT22;18955;51.224;8.482;2024-03-25T06:06:19;7.70;74.50
32506;DHT22;18955;51.224;8.482;2024-03-25T06:08:45;8.10;72.80
32506;DHT22;18955;51.224;8.482;2024-03-25T06:11:12;8.00;73.00
32506;DHT22;18955;51.224;8.482;2024-03-25T06:13:38;7.70;73.90
32506;DHT22;18955;51.224;8.482;2024-03-25T06:16:04;7.60;74.50
32506;DHT22;18955;51.224;8.482;2024-03-25T06:18:31;8.10;73.10
32506;DHT22;18955;51.224;8.482;2024-03-25T06:20:57;8.10;72.90
32506;DHT22;18955;51.224;8.482;2024-03-25T06:23:28;7.80;73.50
32506;DHT22;18955;51.224;8.482;2024-03-25T06:25:55;7.60;74.30
32506;DHT22;18955;51.224;8.482;2024-03-25T06:28:22;7.90;73.90
32506;DHT22;18955;51.224;8.482;2024-03-25T06:30:50;8.10;72.80
32506;DHT22;18955;51.224;8.482;2024-03-25T06:33:35;7.90;73.30
32506;DHT22;18955;51.224;8.482;2024-03-25T06:36:21;7.70;74.20
32506;DHT22;18955;51.224;8.482;2024-03-25T06:38:47;7.80;74.30
32506;DHT22;18955;51.224;8.482;2024-03-25T06:41:13;8.10;73.00
32506;DHT22;18955;51.224;8.482;2024-03-25T06:43:39;8.00;73.30
32506;DHT22;18955;51.224;8.482;2024-03-25T06:46:06;7.80;74.10
32506;DHT22;18955;51.224;8.482;2024-03-25T06:48:33;7.70;74.50
32506;DHT22;18955;51.224;8.482;2024-03-25T06:51:01;8.20;73.10
32506;DHT22;18955;51.224;8.482;2024-03-25T06:53:29;8.20;72.90
32506;DHT22;18955;51.224;8.482;2024-03-25T06:55:56;8.00;73.50
32506;DHT22;18955;51.224;8.482;2024-03-25T06:58:25;7.90;74.30
32506;DHT22;18955;51.224;8.482;2024-03-25T07:00:52;8.20;73.80
32506;DHT22;18955;51.224;8.482;2024-03-25T07:03:19;8.40;72.40
32506;DHT22;18955;51.224;8.482;2024-03-25T07:05:46;8.30;72.80
32506;DHT22;18955;51.224;8.482;2024-03-25T07:08:13;8.20;73.50
32506;DHT22;18955;51.224;8.482;2024-03-25T07:10:41;8.10;74.00
32506;DHT22;18955;51.224;8.482;2024-03-25T07:13:08;8.60;72.50
32506;DHT22;18955;51.224;8.482;2024-03-25T07:15:36;8.60;72.20
32506;DHT22;18955;51.224;8.482;2024-03-25T07:18:03;8.50;72.80
32506;DHT22;18955;51.224;8.482;2024-03-25T07:20:32;8.30;73.50
32506;DHT22;18955;51.224;8.482;2024-03-25T07:22:58;8.30;74.00
32506;DHT22;18955;51.224;8.482;2024-03-25T07:25:25;8.80;72.30
32506;DHT22;18955;51.224;8.482;2024-03-25T07:27:52;8.70;72.60
32506;DHT22;18955;51.224;8.482;2024-03-25T07:30:19;8.50;73.60
32506;DHT22;18955;51.224;8.482;2024-03-25T07:32:45;8.30;74.30
32506;DHT22;18955;51.224;8.482;2024-03-25T07:35:11;8.40;74.20
32506;DHT22;18955;51.224;8.482;2024-03-25T07:37:38;8.80;72.60
32506;DHT22;18955;51.224;8.482;2024-03-25T07:40:07;8.70;73.10
32506;DHT22;18955;51.224;8.482;2024-03-25T07:42:33;8.50;74.10
32506;DHT22;18955;51.224;8.482;2024-03-25T07:44:59;8.30;74.80
32506;DHT22;18955;51.224;8.482;2024-03-25T07:47:26;8.50;74.30
32506;DHT22;18955;51.224;8.482;2024-03-25T07:49:52;8.80;72.90
32506;DHT22;18955;51.224;8.482;2024-03-25T07:52:18;8.70;73.50
32506;DHT22;18955;51.224;8.482;2024-03-25T07:54:44;8.50;75.30
32506;DHT22;18955;51.224;8.482;2024-03-25T07:57:10;8.30;75.10
32506;DHT22;18955;51.224;8.482;2024-03-25T07:59:37;8.60;74.30
32506;DHT22;18955;51.224;8.482;2024-03-25T08:02:03;8.90;73.00
32506;DHT22;18955;51.224;8.482;2024-03-25T08:04:29;8.70;73.80
32506;DHT22;18955;51.224;8.482;2024-03-25T08:06:55;8.50;74.70
32506;DHT22;18955;51.224;8.482;2024-03-25T08:09:22;8.40;75.10
32506;DHT22;18955;51.224;8.482;2024-03-25T08:11:48;8.70;74.50
32506;DHT22;18955;51.224;8.482;2024-03-25T08:14:15;8.90;73.20
32506;DHT22;18955;51.224;8.482;2024-03-25T08:16:41;8.80;73.90
32506;DHT22;18955;51.224;8.482;2024-03-25T08:19:07;8.60;75.00
32506;DHT22;18955;51.224;8.482;2024-03-25T08:21:34;8.50;75.30
32506;DHT22;18955;51.224;8.482;2024-03-25T08:24:00;8.70;74.70
32506;DHT22;18955;51.224;8.482;2024-03-25T08:26:26;9.00;73.20
32506;DHT22;18955;51.224;8.482;2024-03-25T08:28:52;8.90;73.90
32506;DHT22;18955;51.224;8.482;2024-03-25T08:31:18;8.70;74.90
32506;DHT22;18955;51.224;8.482;2024-03-25T08:33:45;8.60;75.40
32506;DHT22;18955;51.224;8.482;2024-03-25T08:36:11;8.70;75.10
32506;DHT22;18955;51.224;8.482;2024-03-25T08:38:37;9.10;73.30
32506;DHT22;18955;51.224;8.482;2024-03-25T08:41:04;9.00;73.80
32506;DHT22;18955;51.224;8.482;2024-03-25T08:43:30;8.80;74.90
32506;DHT22;18955;51.224;8.482;2024-03-25T08:45:56;8.60;75.50
32506;DHT22;18955;51.224;8.482;2024-03-25T08:48:23;8.60;75.40
32506;DHT22;18955;51.224;8.482;2024-03-25T08:50:49;9.10;73.60
32506;DHT22;18955;51.224;8.482;2024-03-25T08:53:16;9.00;73.70
32506;DHT22;18955;51.224;8.482;2024-03-25T08:55:46;8.90;74.70
32506;DHT22;18955;51.224;8.482;2024-03-25T08:58:13;8.70;75.70
32506;DHT22;18955;51.224;8.482;2024-03-25T09:00:40;8.60;75.60
32506;DHT22;18955;51.224;8.482;2024-03-25T09:03:06;9.10;74.00
32506;DHT22;18955;51.224;8.482;2024-03-25T09:05:32;9.00;74.00
32506;DHT22;18955;51.224;8.482;2024-03-25T09:08:00;8.90;75.50
32506;DHT22;18955;51.224;8.482;2024-03-25T09:10:26;8.70;75.40
32506;DHT22;18955;51.224;8.482;2024-03-25T09:13:11;8.60;75.80
32506;DHT22;18955;51.224;8.482;2024-03-25T09:15:38;9.10;74.20
32506;DHT22;18955;51.224;8.482;2024-03-25T09:18:04;9.10;73.90
32506;DHT22;18955;51.224;8.482;2024-03-25T09:20:30;9.00;74.80
32506;DHT22;18955;51.224;8.482;2024-03-25T09:22:56;8.80;75.80
32506;DHT22;18955;51.224;8.482;2024-03-25T09:25:23;8.70;76.30
32506;DHT22;18955;51.224;8.482;2024-03-25T09:27:50;9.10;74.90
32506;DHT22;18955;51.224;8.482;2024-03-25T09:30:16;9.20;73.70
32506;DHT22;18955;51.224;8.482;2024-03-25T09:32:44;9.00;74.50
32506;DHT22;18955;51.224;8.482;2024-03-25T09:35:19;8.90;75.80
32506;DHT22;18955;51.224;8.482;2024-03-25T09:37:46;8.70;75.90
32506;DHT22;18955;51.224;8.482;2024-03-25T09:40:12;9.00;75.70
32506;DHT22;18955;51.224;8.482;2024-03-25T09:42:47;9.20;74.00
32506;DHT22;18955;51.224;8.482;2024-03-25T09:45:16;9.10;74.60
32506;DHT22;18955;51.224;8.482;2024-03-25T09:47:46;8.90;75.70
32506;DHT22;18955;51.224;8.482;2024-03-25T09:50:14;8.70;76.10
32506;DHT22;18955;51.224;8.482;2024-03-25T09:52:46;8.90;76.00
32506;DHT22;18955;51.224;8.482;2024-03-25T09:55:12;9.30;74.10
32506;DHT22;18955;51.224;8.482;2024-03-25T09:57:39;9.20;74.60
32506;DHT22;18955;51.224;8.482;2024-03-25T10:00:08;9.00;75.60
32506;DHT22;18955;51.224;8.482;2024-03-25T10:02:42;8.80;75.90
32506;DHT22;18955;51.224;8.482;2024-03-25T10:05:08;8.80;76.20
32506;DHT22;18955;51.224;8.482;2024-03-25T10:07:35;9.40;74.20
32506;DHT22;18955;51.224;8.482;2024-03-25T10:10:05;9.30;74.30
32506;DHT22;18955;51.224;8.482;2024-03-25T10:12:32;9.10;75.10
32506;DHT22;18955;51.224;8.482;2024-03-25T10:14:58;8.90;76.30
32506;DHT22;18955;51.224;8.482;2024-03-25T10:17:25;8.80;76.20
32506;DHT22;18955;51.224;8.482;2024-03-25T10:19:54;9.20;75.20
32506;DHT22;18955;51.224;8.482;2024-03-25T10:22:20;9.40;74.30
32506;DHT22;18955;51.224;8.482;2024-03-25T10:24:47;9.20;74.90
32506;DHT22;18955;51.224;8.482;2024-03-25T10:29:44;8.90;76.70
32506;DHT22;18955;51.224;8.482;2024-03-25T10:32:10;9.00;76.20
32506;DHT22;18955;51.224;8.482;2024-03-25T10:34:38;9.40;74.20
32506;DHT22;18955;51.224;8.482;2024-03-25T10:37:05;9.30;74.60
32506;DHT22;18955;51.224;8.482;2024-03-25T10:39:39;9.10;75.60
32506;DHT22;18955;51.224;8.482;2024-03-25T10:42:06;9.00;76.20
32506;DHT22;18955;51.224;8.482;2024-03-25T10:44:33;8.90;76.40
32506;DHT22;18955;51.224;8.482;2024-03-25T10:47:03;9.40;74.60
32506;DHT22;18955;51.224;8.482;2024-03-25T10:49:38;9.50;74.30
32506;DHT22;18955;51.224;8.482;2024-03-25T10:52:07;9.30;75.00
32506;DHT22;18955;51.224;8.482;2024-03-25T10:54:35;9.10;75.90
32506;DHT22;18955;51.224;8.482;2024-03-25T10:57:03;9.00;76.20
32506;DHT22;18955;51.224;8.482;2024-03-25T10:59:30;9.20;76.20
32506;DHT22;18955;51.224;8.482;2024-03-25T11:01:57;9.60;74.20
32506;DHT22;18955;51.224;8.482;2024-03-25T11:04:24;9.50;74.70
32506;DHT22;18955;51.224;8.482;2024-03-25T11:06:50;9.30;75.40
32506;DHT22;18955;51.224;8.482;2024-03-25T11:09:23;9.10;76.00
32506;DHT22;18955;51.224;8.482;2024-03-25T11:11:53;9.00;76.30
32506;DHT22;18955;51.224;8.482;2024-03-25T11:14:19;9.50;74.80
32506;DHT22;18955;51.224;8.482;2024-03-25T11:16:52;9.60;74.40
32506;DHT22;18955;51.224;8.482;2024-03-25T11:19:20;9.50;75.00
32506;DHT22;18955;51.224;8.482;2024-03-25T11:21:47;9.30;75.60
32506;DHT22;18955;51.224;8.482;2024-03-25T11:24:13;9.20;76.20
32506;DHT22;18955;51.224;8.482;2024-03-25T11:26:42;9.20;76.20
32506;DHT22;18955;51.224;8.482;2024-03-25T11:29:08;9.70;74.20
32506;DHT22;18955;51.224;8.482;2024-03-25T11:31:38;9.60;74.60
32506;DHT22;18955;51.224;8.482;2024-03-25T11:34:05;9.50;75.40
32506;DHT22;18955;51.224;8.482;2024-03-25T11:36:32;9.30;76.00
32506;DHT22;18955;51.224;8.482;2024-03-25T11:38:59;9.20;76.50
32506;DHT22;18955;51.224;8.482;2024-03-25T11:41:26;9.50;75.90
32506;DHT22;18955;51.224;8.482;2024-03-25T11:43:53;9.70;74.20
32506;DHT22;18955;51.224;8.482;2024-03-25T11:46:19;9.60;75.00
32506;DHT22;18955;51.224;8.482;2024-03-25T11:48:45;9.50;75.70
32506;DHT22;18955;51.224;8.482;2024-03-25T11:51:16;9.30;76.10
32506;DHT22;18955;51.224;8.482;2024-03-25T11:53:42;9.20;76.40
32506;DHT22;18955;51.224;8.482;2024-03-25T11:56:10;9.70;74.80
32506;DHT22;18955;51.224;8.482;2024-03-25T11:58:40;9.80;74.40
32506;DHT22;18955;51.224;8.482;2024-03-25T12:01:07;9.60;75.00
32506;DHT22;18955;51.224;8.482;2024-03-25T12:03:35;9.40;75.70
32506;DHT22;18955;51.224;8.482;2024-03-25T12:06:02;9.30;76.30
32506;DHT22;18955;51.224;8.482;2024-03-25T12:08:29;9.30;76.40
32506;DHT22;18955;51.224;8.482;2024-03-25T12:10:56;9.80;74.40
32506;DHT22;18955;51.224;8.482;2024-03-25T12:13:42;9.80;74.60
32506;DHT22;18955;51.224;8.482;2024-03-25T12:16:09;9.60;75.50
32506;DHT22;18955;51.224;8.482;2024-03-25T12:18:36;9.50;76.10
32506;DHT22;18955;51.224;8.482;2024-03-25T12:21:06;9.30;76.60
32506;DHT22;18955;51.224;8.482;2024-03-25T12:23:33;9.40;76.50
32506;DHT22;18955;51.224;8.482;2024-03-25T12:26:02;9.80;74.60
32506;DHT22;18955;51.224;8.482;2024-03-25T12:28:31;9.80;75.00
32506;DHT22;18955;51.224;8.482;2024-03-25T12:30:57;9.60;75.70
32506;DHT22;18955;51.224;8.482;2024-03-25T12:33:24;9.50;76.30
32506;DHT22;18955;51.224;8.482;2024-03-25T12:35:52;9.30;76.70
32506;DHT22;18955;51.224;8.482;2024-03-25T12:38:30;9.60;76.20
32506;DHT22;18955;51.224;8.482;2024-03-25T12:41:10;10.00;74.50
32506;DHT22;18955;51.224;8.482;2024-03-25T12:43:42;9.80;75.10
32506;DHT22;18955;51.224;8.482;2024-03-25T12:46:09;9.60;76.10
32506;DHT22;18955;51.224;8.482;2024-03-25T12:48:38;9.50;76.50
32506;DHT22;18955;51.224;8.482;2024-03-25T12:51:12;9.40;76.90
32506;DHT22;18955;51.224;8.482;2024-03-25T12:53:39;9.80;75.30
32506;DHT22;18955;51.224;8.482;2024-03-25T12:56:06;10.00;74.70
32506;DHT22;18955;51.224;8.482;2024-03-25T12:58:32;9.80;75.30
32506;DHT22;18955;51.224;8.482;2024-03-25T13:00:59;9.70;76.10
32506;DHT22;18955;51.224;8.482;2024-03-25T13:03:25;9.50;76.60
32506;DHT22;18955;51.224;8.482;2024-03-25T13:05:51;9.40;76.90
32506;DHT22;18955;51.224;8.482;2024-03-25T13:08:17;9.90;75.90
32506;DHT22;18955;51.224;8.482;2024-03-25T13:10:44;10.00;74.90
32506;DHT22;18955;51.224;8.482;2024-03-25T13:13:10;9.90;75.40
32506;DHT22;18955;51.224;8.482;2024-03-25T13:15:36;9.70;76.20
32506;DHT22;18955;51.224;8.482;2024-03-25T13:18:03;9.60;76.70
32506;DHT22;18955;51.224;8.482;2024-03-25T13:20:29;9.50;77.20
32506;DHT22;18955;51.224;8.482;2024-03-25T13:22:55;9.80;76.40
32506;DHT22;18955;51.224;8.482;2024-03-25T13:25:25;10.20;74.90
32506;DHT22;18955;51.224;8.482;2024-03-25T13:27:51;10.10;75.40
32506;DHT22;18955;51.224;8.482;2024-03-25T13:30:17;10.00;75.70
32506;DHT22;18955;51.224;8.482;2024-03-25T13:32:43;9.90;76.30
32506;DHT22;18955;51.224;8.482;2024-03-25T13:35:10;9.80;76.80
32506;DHT22;18955;51.224;8.482;2024-03-25T13:37:36;9.90;76.40
32506;DHT22;18955;51.224;8.482;2024-03-25T13:40:02;10.40;74.60
32506;DHT22;18955;51.224;8.482;2024-03-25T13:42:32;10.30;74.70
32506;DHT22;18955;51.224;8.482;2024-03-25T13:44:58;10.20;75.10
32506;DHT22;18955;51.224;8.482;2024-03-25T13:47:24;10.10;75.60
32506;DHT22;18955;51.224;8.482;2024-03-25T13:50:03;10.10;76.40
32506;DHT22;18955;51.224;8.482;2024-03-25T13:52:30;10.00;76.60
32506;DHT22;18955;51.224;8.482;2024-03-25T13:54:57;10.50;75.00
32506;DHT22;18955;51.224;8.482;2024-03-25T13:57:23;10.60;74.60
32506;DHT22;18955;51.224;8.482;2024-03-25T13:59:50;10.50;74.80
32506;DHT22;18955;51.224;8.482;2024-03-25T14:02:17;10.40;75.40
32506;DHT22;18955;51.224;8.482;2024-03-25T14:04:43;10.30;75.70
32506;DHT22;18955;51.224;8.482;2024-03-25T14:07:09;10.30;76.10
32506;DHT22;18955;51.224;8.482;2024-03-25T14:09:35;10.40;76.10
32506;DHT22;18955;51.224;8.482;2024-03-25T14:12:02;10.90;74.40
32506;DHT22;18955;51.224;8.482;2024-03-25T14:14:29;10.90;74.10
32506;DHT22;18955;51.224;8.482;2024-03-25T14:16:55;10.80;74.50
32506;DHT22;18955;51.224;8.482;2024-03-25T14:19:22;10.80;75.00
32506;DHT22;18955;51.224;8.482;2024-03-25T14:21:48;10.70;75.20
32506;DHT22;18955;51.224;8.482;2024-03-25T14:24:15;10.70;75.40
32506;DHT22;18955;51.224;8.482;2024-03-25T14:26:41;10.80;75.60
32506;DHT22;18955;51.224;8.482;2024-03-25T14:29:08;11.30;74.00
32506;DHT22;18955;51.224;8.482;2024-03-25T14:31:34;11.40;73.70
32506;DHT22;18955;51.224;8.482;2024-03-25T14:34:00;11.30;74.30
32506;DHT22;18955;51.224;8.482;2024-03-25T14:36:27;11.20;74.40
32506;DHT22;18955;51.224;8.482;2024-03-25T14:38:53;11.10;74.90
32506;DHT22;18955;51.224;8.482;2024-03-25T14:41:20;11.10;75.10
32506;DHT22;18955;51.224;8.482;2024-03-25T14:43:47;11.10;75.20
32506;DHT22;18955;51.224;8.482;2024-03-25T14:46:16;11.30;75.00
32506;DHT22;18955;51.224;8.482;2024-03-25T14:48:43;11.80;73.60
32506;DHT22;18955;51.224;8.482;2024-03-25T14:51:09;11.70;73.50
32506;DHT22;18955;51.224;8.482;2024-03-25T14:53:36;11.70;73.90
32506;DHT22;18955;51.224;8.482;2024-03-25T14:56:02;11.60;74.40
32506;DHT22;18955;51.224;8.482;2024-03-25T14:58:29;11.50;74.50
32506;DHT22;18955;51.224;8.482;2024-03-25T15:00:57;11.60;74.90
32506;DHT22;18955;51.224;8.482;2024-03-25T15:03:23;11.60;74.80
32506;DHT22;18955;51.224;8.482;2024-03-25T15:05:49;11.60;74.80
32506;DHT22;18955;51.224;8.482;2024-03-25T15:08:16;12.00;73.90
32506;DHT22;18955;51.224;8.482;2024-03-25T15:10:42;12.20;73.20
32506;DHT22;18955;51.224;8.482;2024-03-25T15:13:11;12.20;73.20
32506;DHT22;18955;51.224;8.482;2024-03-25T15:15:40;12.10;73.70
32506;DHT22;18955;51.224;8.482;2024-03-25T15:18:09;12.00;74.30
32506;DHT22;18955;51.224;8.482;2024-03-25T15:20:35;11.90;74.70
32506;DHT22;18955;51.224;8.482;2024-03-25T15:23:01;11.70;74.70
32506;DHT22;18955;51.224;8.482;2024-03-25T15:25:27;11.70;75.30
32506;DHT22;18955;51.224;8.482;2024-03-25T15:27:54;11.60;75.50
32506;DHT22;18955;51.224;8.482;2024-03-25T15:30:20;11.60;76.20
32506;DHT22;18955;51.224;8.482;2024-03-25T15:32:47;12.10;74.40
32506;DHT22;18955;51.224;8.482;2024-03-25T15:35:13;12.10;74.50
32506;DHT22;18955;51.224;8.482;2024-03-25T15:37:40;11.90;74.60
32506;DHT22;18955;51.224;8.482;2024-03-25T15:40:07;11.80;75.50
32506;DHT22;18955;51.224;8.482;2024-03-25T15:42:35;11.70;76.20
32506;DHT22;18955;51.224;8.482;2024-03-25T15:45:01;11.60;76.30
32506;DHT22;18955;51.224;8.482;2024-03-25T15:47:27;11.50;76.60